X  Close Metar Aviation Weather Data     LGRX Patras Araxos Agamemnon Airport
Temperature
77°F Temperature
68°F Dewpoint
74% Humidity



Wind
5 MPH
8 KM/H
2 M/S
4 KTS



260°
W
Current Conditions

Clear Clear
Pressure 1010.84 (hPa) - 29.85 (inHg)
Visibility 6 (mile) - 9.7 (km)
Airport
Airport-code LGRX

Location: Patras Araxos Agamemnon Airport
Distance: 108 (mi)

Metar:
LGRX 140520Z 26004KT CAVOK 25/20 Q1011

Time: 14-06-2024 08:20 EEST